Time;durP1;ratioP1;P1;durP2;ratioP2;P2;SDS_P1;SDS_P2;PMS_P1;PMS_P2;Temp;Humidity;BMP_temperature;BMP_pressure;BME280_temperature;BME280_humidity;BME280_pressure;Samples;Min_cycle;Max_cycle;Signal;HPM_P1;HPM_P2
2022/08/29 00:00:38;;;;;;;;;2.00;0.00;;;;;20.75;44.42;101131.44;5096426;27;45407;-58
2022/08/29 00:03:05;;;;;;;;;3.00;3.00;;;;;20.75;44.57;101131.44;5111490;27;45366;-60
2022/08/29 00:05:33;;;;;;;;;2.00;2.00;;;;;20.76;44.51;101133.16;5117176;27;45320;-58
2022/08/29 00:08:00;;;;;;;;;1.67;1.67;;;;;20.75;44.53;101136.84;5097387;27;45586;-58
2022/08/29 00:10:27;;;;;;;;;3.00;2.00;;;;;20.73;44.62;101132.59;5095042;27;45264;-58
2022/08/29 00:12:52;;;;;;;;;5.67;3.00;;;;;20.74;44.74;101128.91;5105012;27;45629;-58
2022/08/29 00:15:19;;;;;;;;;2.00;2.00;;;;;20.75;44.64;101136.84;5098049;27;45655;-58
2022/08/29 00:17:45;;;;;;;;;1.33;1.33;;;;;20.70;44.56;101127.44;5098813;27;47214;-58
2022/08/29 00:20:15;;;;;;;;;2.67;1.67;;;;;20.72;44.67;101136.28;5099578;27;45359;-59
2022/08/29 00:22:41;;;;;;;;;2.67;2.67;;;;;20.69;44.63;101125.72;5099995;27;45358;-58
2022/08/29 00:25:09;;;;;;;;;3.00;3.00;;;;;20.65;44.63;101130.56;5100037;27;45320;-58
2022/08/29 00:27:35;;;;;;;;;2.00;2.00;;;;;20.64;44.95;101138.81;5098671;27;48373;-58
2022/08/29 00:30:00;;;;;;;;;2.33;2.33;;;;;20.64;44.72;101133.41;5101973;27;45432;-59
2022/08/29 00:32:33;;;;;;;;;2.00;2.00;;;;;20.55;44.84;101130.53;5098167;27;45359;-59
2022/08/29 00:34:59;;;;;;;;;1.00;1.00;;;;;20.56;44.83;101121.44;5101417;27;45521;-58
2022/08/29 00:37:25;;;;;;;;;2.00;2.00;;;;;20.61;44.85;101127.28;5111932;27;46305;-58
2022/08/29 00:39:50;;;;;;;;;2.00;2.00;;;;;20.60;44.88;101122.88;5099725;27;45349;-59
2022/08/29 00:42:16;;;;;;;;;0.00;0.00;;;;;20.56;44.83;101124.13;5099197;27;45265;-58
2022/08/29 00:44:41;;;;;;;;;0.00;0.00;;;;;20.58;44.77;101124.88;5099763;27;45614;-59
2022/08/29 00:47:11;;;;;;;;;1.00;1.00;;;;;20.56;44.89;101129.53;5110871;27;45405;-58
2022/08/29 00:49:56;;;;;;;;;3.33;2.00;;;;;20.50;44.90;101122.00;5089907;27;45472;-59
2022/08/29 00:52:31;;;;;;;;;3.00;1.67;;;;;20.46;44.93;101114.31;5118285;27;45324;-59
2022/08/29 00:54:59;;;;;;;;;3.33;0.67;;;;;20.51;44.92;101122.84;5106836;27;45491;-58
2022/08/29 00:57:28;;;;;;;;;3.33;3.00;;;;;20.51;45.57;101131.81;5108293;27;45623;-58
2022/08/29 00:59:54;;;;;;;;;1.00;1.00;;;;;20.51;45.03;101134.50;5119575;27;45365;-58
2022/08/29 01:02:19;;;;;;;;;2.00;2.00;;;;;20.52;45.15;101136.22;5115400;27;45246;-58
2022/08/29 01:04:45;;;;;;;;;2.00;2.00;;;;;20.50;44.87;101138.19;5115002;27;45432;-58
2022/08/29 01:07:11;;;;;;;;;1.00;1.00;;;;;20.50;45.13;101138.19;5103361;27;46827;-58
2022/08/29 01:09:38;;;;;;;;;1.67;1.67;;;;;20.51;45.00;101136.34;5109601;27;45533;-58
2022/08/29 01:12:14;;;;;;;;;2.00;2.00;;;;;20.47;44.80;101130.38;5099220;27;45686;-58
2022/08/29 01:15:04;;;;;;;;;1.00;1.00;;;;;20.48;45.10;101132.09;5099146;27;45519;-59
2022/08/29 01:17:33;;;;;;;;;1.67;1.00;;;;;20.43;45.19;101120.81;5098314;27;46371;-57
2022/08/29 01:20:09;;;;;;;;;0.33;0.33;;;;;20.39;45.21;101119.34;5104718;27;45888;-59
2022/08/29 01:22:37;;;;;;;;;1.00;1.00;;;;;20.40;45.21;101121.06;5086103;27;45502;-58
2022/08/29 01:25:07;;;;;;;;;1.00;1.00;;;;;20.33;45.26;101118.06;5099876;27;45413;-58
2022/08/29 01:27:37;;;;;;;;;3.00;1.67;;;;;20.31;45.29;101108.34;5118112;27;47282;-59
2022/08/29 01:30:05;;;;;;;;;3.00;2.00;;;;;20.31;45.49;101121.88;5119250;27;45391;-59
2022/08/29 01:32:31;;;;;;;;;1.00;1.00;;;;;20.26;45.44;101114.19;5118194;27;45421;-60
2022/08/29 01:34:56;;;;;;;;;2.00;1.00;;;;;20.21;45.35;101111.03;5114745;27;45484;-59
2022/08/29 01:37:21;;;;;;;;;3.00;1.00;;;;;20.20;45.85;101113.88;5110985;27;45493;-58
2022/08/29 01:39:48;;;;;;;;;1.33;1.33;;;;;20.08;45.59;101096.91;5082482;27;45456;-59
2022/08/29 01:42:21;;;;;;;;;0.33;0.33;;;;;20.17;45.63;101108.72;5099222;27;45341;-58
2022/08/29 01:44:52;;;;;;;;;2.67;2.67;;;;;20.17;45.68;101122.22;5107355;27;45451;-57
2022/08/29 01:47:19;;;;;;;;;1.00;1.00;;;;;20.17;45.60;101122.22;5098828;27;45399;-58
2022/08/29 01:49:45;;;;;;;;;1.00;1.00;;;;;20.15;45.63;101116.13;5098676;27;45203;-62
2022/08/29 01:52:11;;;;;;;;;1.00;1.00;;;;;20.13;45.60;101112.69;5108545;27;46181;-59
2022/08/29 01:54:39;;;;;;;;;0.67;0.67;;;;;20.10;45.86;101115.69;5098819;27;45504;-58
2022/08/29 01:57:05;;;;;;;;;1.00;1.00;;;;;20.08;45.84;101120.38;5096009;27;46096;-58
2022/08/29 01:59:32;;;;;;;;;1.00;1.00;;;;;20.00;45.93;101105.69;5104004;27;45462;-64
2022/08/29 02:02:04;;;;;;;;;1.00;1.00;;;;;20.02;46.42;101106.38;5098051;27;45269;-59
2022/08/29 02:04:30;;;;;;;;;2.00;1.00;;;;;19.94;46.21;101108.94;5097180;27;45534;-59
2022/08/29 02:06:56;;;;;;;;;1.67;1.00;;;;;19.90;46.59;101120.97;5098292;27;45617;-59
2022/08/29 02:09:23;;;;;;;;;3.00;1.00;;;;;19.88;46.21;101117.53;5109891;27;45668;-59
2022/08/29 02:11:49;;;;;;;;;3.00;2.00;;;;;19.87;46.16;101110.44;5099013;27;45284;-57
2022/08/29 02:14:14;;;;;;;;;2.00;1.33;;;;;19.91;46.34;101109.16;5105644;27;45220;-59
2022/08/29 02:16:40;;;;;;;;;1.00;1.00;;;;;19.82;46.29;101112.69;5118513;27;45519;-59
2022/08/29 02:19:05;;;;;;;;;1.00;1.00;;;;;19.78;46.47;101102.28;5096864;27;45488;-58
2022/08/29 02:21:31;;;;;;;;;2.00;2.00;;;;;19.80;46.46;101103.03;5095098;27;45495;-58
2022/08/29 02:23:59;;;;;;;;;3.00;1.00;;;;;19.79;46.70;101101.28;5097617;27;45475;-57
2022/08/29 02:26:25;;;;;;;;;1.00;1.00;;;;;19.80;46.46;101111.13;5077688;27;45453;-60
2022/08/29 02:28:51;;;;;;;;;1.00;1.00;;;;;19.77;46.73;101117.59;5085799;27;45406;-59
2022/08/29 02:31:18;;;;;;;;;2.33;1.00;;;;;19.78;46.58;101102.28;5081412;27;45601;-58
2022/08/29 02:33:44;;;;;;;;;1.33;1.33;;;;;19.77;46.90;101106.81;5090523;27;45615;-59
2022/08/29 02:36:10;;;;;;;;;1.00;1.00;;;;;19.70;46.85;101095.72;5085650;27;45747;-58
2022/08/29 02:38:35;;;;;;;;;1.00;1.00;;;;;19.72;46.70;101100.97;5090150;27;45476;-58
2022/08/29 02:41:01;;;;;;;;;1.00;1.00;;;;;19.71;47.25;101093.88;5084785;27;45357;-58
2022/08/29 02:43:27;;;;;;;;;2.67;2.00;;;;;19.69;46.85;101096.69;5077810;27;45662;-59
2022/08/29 02:45:53;;;;;;;;;1.00;1.00;;;;;19.69;46.76;101099.41;5084151;27;45408;-58
2022/08/29 02:48:20;;;;;;;;;1.00;1.00;;;;;19.67;47.12;101100.53;5080277;27;45457;-58
2022/08/29 02:50:48;;;;;;;;;1.00;1.00;;;;;19.58;47.04;101090.50;5076992;27;45258;-59
2022/08/29 02:53:19;;;;;;;;;2.67;1.67;;;;;19.57;47.08;101088.81;5092083;27;45299;-59
2022/08/29 02:55:46;;;;;;;;;2.00;1.00;;;;;19.61;47.24;101101.03;5084914;27;46605;-57
2022/08/29 02:58:12;;;;;;;;;1.00;1.00;;;;;19.61;47.20;101095.63;5095806;27;46667;-58
2022/08/29 03:00:38;;;;;;;;;1.00;1.00;;;;;19.58;47.28;101098.59;5091138;27;45295;-60
2022/08/29 03:03:04;;;;;;;;;1.00;1.00;;;;;19.61;47.16;101112.69;5110925;27;45519;-61
2022/08/29 03:05:33;;;;;;;;;1.33;1.33;;;;;19.60;47.46;101110.13;5100351;27;45543;-58
2022/08/29 03:08:00;;;;;;;;;1.00;1.00;;;;;19.58;47.17;101098.59;5078390;27;45576;-58
2022/08/29 03:10:26;;;;;;;;;2.00;2.00;;;;;19.54;47.54;101094.44;5080161;27;45515;-58
2022/08/29 03:12:52;;;;;;;;;0.33;0.33;;;;;19.51;47.35;101094.69;5096789;27;45590;-58
2022/08/29 03:15:17;;;;;;;;;0.67;0.67;;;;;19.51;47.39;101089.28;5090487;27;48078;-58
2022/08/29 03:17:44;;;;;;;;;1.67;1.67;;;;;19.51;47.39;101094.69;5095904;27;45487;-59
2022/08/29 03:20:12;;;;;;;;;3.00;1.67;;;;;19.53;47.42;101098.09;5094588;27;45421;-58
2022/08/29 03:22:38;;;;;;;;;1.00;1.00;;;;;19.50;47.64;101095.66;5097399;27;45445;-59
2022/08/29 03:25:06;;;;;;;;;1.67;1.67;;;;;19.50;47.11;101092.97;5089634;27;47676;-58
2022/08/29 03:27:32;;;;;;;;;4.00;1.00;;;;;19.51;47.45;101100.94;5075425;28;45283;-59
2022/08/29 03:29:58;;;;;;;;;2.00;2.00;;;;;19.45;47.35;101086.13;5090514;27;45264;-58
2022/08/29 03:32:24;;;;;;;;;3.00;3.00;;;;;19.47;47.58;101094.09;5094590;27;45412;-60
2022/08/29 03:34:50;;;;;;;;;1.00;1.00;;;;;19.39;47.57;101075.84;5095033;27;46056;-58
2022/08/29 03:37:15;;;;;;;;;2.00;2.00;;;;;19.41;47.94;101084.69;5077479;27;45697;-59
2022/08/29 03:39:41;;;;;;;;;1.67;1.33;;;;;19.42;47.74;101080.16;5086884;27;45372;-59
2022/08/29 03:42:07;;;;;;;;;0.33;0.33;;;;;19.32;47.86;101073.81;5096211;27;45418;-58
2022/08/29 03:44:35;;;;;;;;;1.00;1.00;;;;;19.35;47.81;101093.28;5085129;27;46033;-59
2022/08/29 03:47:01;;;;;;;;;1.00;1.00;;;;;19.34;48.13;101085.34;5096390;27;45251;-58
2022/08/29 03:49:27;;;;;;;;;2.00;2.00;;;;;19.30;48.17;101090.16;5077653;27;45278;-58
2022/08/29 03:51:52;;;;;;;;;2.00;2.00;;;;;19.31;48.26;101082.91;5092350;27;45546;-58
2022/08/29 03:54:18;;;;;;;;;2.00;2.00;;;;;19.32;48.20;101087.31;5088258;27;46005;-58
2022/08/29 03:56:44;;;;;;;;;1.00;1.00;;;;;19.26;48.09;101080.59;5086666;27;45456;-57
2022/08/29 03:59:10;;;;;;;;;0.67;0.00;;;;;19.29;47.92;101084.88;5095978;27;45579;-58
2022/08/29 04:01:36;;;;;;;;;2.00;2.00;;;;;19.27;48.00;101085.03;5090022;27;45593;-59
2022/08/29 04:04:02;;;;;;;;;2.00;2.00;;;;;19.25;48.23;101086.09;5082583;27;48361;-58
2022/08/29 04:06:27;;;;;;;;;2.00;2.00;;;;;19.26;48.05;101102.16;5095215;27;45453;-59
2022/08/29 04:08:53;;;;;;;;;5.33;1.33;;;;;19.27;47.90;101100.31;5088016;27;45491;-58
2022/08/29 04:11:21;;;;;;;;;2.33;2.33;;;;;19.26;48.26;101102.16;5086107;27;45817;-58
2022/08/29 04:13:47;;;;;;;;;2.00;2.00;;;;;19.27;48.04;101098.50;5092459;27;45465;-58
2022/08/29 04:16:16;;;;;;;;;3.33;3.33;;;;;19.27;48.16;101086.81;5075512;27;45428;-58
2022/08/29 04:18:41;;;;;;;;;2.67;1.67;;;;;19.31;48.06;101093.69;5079223;27;45332;-59
2022/08/29 04:21:08;;;;;;;;;2.33;2.33;;;;;19.29;48.53;101096.53;5076874;27;45623;-58
2022/08/29 04:23:35;;;;;;;;;4.33;2.33;;;;;19.27;48.17;101089.53;5088317;27;46354;-58
2022/08/29 04:26:01;;;;;;;;;1.00;1.00;;;;;19.24;48.29;101093.34;5086602;27;45455;-59
2022/08/29 04:28:27;;;;;;;;;2.00;2.00;;;;;19.21;48.29;101088.22;5083781;27;45164;-59
2022/08/29 04:30:53;;;;;;;;;1.00;1.00;;;;;19.20;48.63;101091.03;5093192;27;45746;-58
2022/08/29 04:33:21;;;;;;;;;2.00;2.00;;;;;19.20;48.43;101088.34;5090831;27;46058;-58
2022/08/29 04:35:47;;;;;;;;;2.00;2.00;;;;;19.16;48.54;101085.06;5093257;27;45479;-57
2022/08/29 04:38:12;;;;;;;;;2.00;2.00;;;;;19.09;48.83;101078.47;5077449;27;45362;-57
2022/08/29 04:40:40;;;;;;;;;3.00;1.00;;;;;19.10;48.33;101085.56;5075050;27;45930;-58
2022/08/29 04:43:06;;;;;;;;;3.67;3.67;;;;;19.18;48.60;101093.03;5084607;27;46183;-58
2022/08/29 04:45:32;;;;;;;;;3.33;2.00;;;;;19.04;48.43;101083.41;5092197;27;45319;-58
2022/08/29 04:47:58;;;;;;;;;4.33;2.00;;;;;19.10;48.47;101107.13;5096507;27;45372;-58
2022/08/29 04:50:25;;;;;;;;;1.00;1.00;;;;;19.10;48.72;101101.75;5093562;27;45222;-58
2022/08/29 04:52:53;;;;;;;;;2.00;2.00;;;;;19.10;48.50;101090.94;5092572;27;46086;-57
2022/08/29 04:55:21;;;;;;;;;2.00;2.00;;;;;19.06;48.57;101106.53;5076294;27;45491;-58
2022/08/29 04:57:49;;;;;;;;;0.67;0.00;;;;;19.04;48.69;101111.22;5085847;27;45534;-58
2022/08/29 05:00:19;;;;;;;;;3.00;2.00;;;;;19.05;48.76;101117.47;5079534;27;45573;-59
2022/08/29 05:02:44;;;;;;;;;1.00;1.00;;;;;19.04;48.66;101124.69;5094956;27;46214;-58
2022/08/29 05:05:12;;;;;;;;;2.00;2.00;;;;;18.87;48.93;101106.34;5088088;27;45515;-61
2022/08/29 05:07:38;;;;;;;;;2.00;2.00;;;;;18.98;49.00;101124.31;5098636;27;45378;-59
2022/08/29 05:10:11;;;;;;;;;2.00;2.00;;;;;18.79;49.18;101104.28;5088778;27;45534;-58
2022/08/29 05:12:37;;;;;;;;;1.67;1.67;;;;;18.92;49.23;101130.22;5084786;27;45558;-60
2022/08/29 05:15:04;;;;;;;;;4.00;3.00;;;;;18.94;49.29;101134.50;5087279;27;46836;-59
2022/08/29 05:17:29;;;;;;;;;2.00;2.00;;;;;18.88;49.28;101124.25;5095426;27;46044;-60
2022/08/29 05:19:55;;;;;;;;;2.00;2.00;;;;;18.91;49.18;101131.22;5097081;27;45619;-60
2022/08/29 05:22:21;;;;;;;;;2.67;1.33;;;;;18.89;49.25;101130.50;5098428;27;45473;-61
2022/08/29 05:24:47;;;;;;;;;2.00;2.00;;;;;18.94;49.61;101125.56;5093074;27;45511;-58
2022/08/29 05:27:16;;;;;;;;;3.67;2.00;;;;;18.96;49.07;101132.53;5097594;27;45439;-58
2022/08/29 05:29:44;;;;;;;;;3.00;2.00;;;;;18.97;49.15;101136.94;5092712;27;45457;-58
2022/08/29 05:32:13;;;;;;;;;2.33;2.33;;;;;18.97;49.59;101149.56;5094505;27;45422;-59
2022/08/29 05:34:39;;;;;;;;;3.00;2.00;;;;;18.90;49.81;101138.44;5094676;27;45542;-62
2022/08/29 05:37:08;;;;;;;;;2.00;2.00;;;;;18.86;49.40;101139.66;5088486;27;45441;-58
2022/08/29 05:39:35;;;;;;;;;1.00;1.00;;;;;18.91;49.89;101145.56;5093434;27;45854;-59
2022/08/29 05:42:01;;;;;;;;;4.67;1.67;;;;;18.91;49.37;101144.69;5080364;27;46133;-58
2022/08/29 05:44:28;;;;;;;;;2.00;1.33;;;;;18.97;49.88;101157.66;5094091;27;46516;-58
2022/08/29 05:46:54;;;;;;;;;2.00;2.00;;;;;18.96;49.43;101158.63;5075006;27;45654;-59
2022/08/29 05:49:20;;;;;;;;;2.00;2.00;;;;;19.02;49.39;101168.94;5091660;27;45620;-57
2022/08/29 05:51:46;;;;;;;;;3.67;3.00;;;;;19.01;49.48;101164.50;5076587;27;45417;-57
2022/08/29 05:54:12;;;;;;;;;2.00;2.00;;;;;19.02;49.42;101166.25;5090834;27;45461;-58
2022/08/29 05:56:38;;;;;;;;;2.00;2.00;;;;;19.06;49.26;101157.75;5082267;27;45277;-59
2022/08/29 05:59:03;;;;;;;;;3.00;2.00;;;;;19.05;48.97;101152.50;5081542;27;45457;-58
2022/08/29 06:01:32;;;;;;;;;1.67;1.67;;;;;19.12;49.24;101168.03;5093864;27;46623;-57
2022/08/29 06:03:59;;;;;;;;;4.00;4.00;;;;;19.10;49.37;101166.44;5085594;27;45444;-57
2022/08/29 06:06:27;;;;;;;;;2.00;2.00;;;;;19.11;49.41;101178.94;5088722;27;45473;-59
2022/08/29 06:08:53;;;;;;;;;2.67;2.00;;;;;19.15;49.36;101172.31;5095821;27;45553;-59
2022/08/29 06:11:22;;;;;;;;;4.00;4.00;;;;;19.19;49.36;101173.78;5088398;27;46384;-59
2022/08/29 06:13:48;;;;;;;;;2.00;2.00;;;;;19.23;48.61;101172.53;5081258;27;45374;-59
2022/08/29 06:16:16;;;;;;;;;5.33;3.67;;;;;19.21;48.89;101163.72;5079356;27;45501;-59
2022/08/29 06:18:42;;;;;;;;;3.00;3.00;;;;;19.27;48.96;101178.50;5097215;27;45485;-58
2022/08/29 06:21:09;;;;;;;;;3.00;3.00;;;;;19.19;48.96;101175.63;5097930;27;45201;-59
2022/08/29 06:23:35;;;;;;;;;2.00;2.00;;;;;19.07;49.42;101164.88;5098334;27;45264;-57
2022/08/29 06:26:01;;;;;;;;;3.00;3.00;;;;;19.14;49.28;101175.97;5104653;27;45522;-58
2022/08/29 06:28:28;;;;;;;;;3.00;3.00;;;;;19.22;49.14;101180.75;5086580;27;46839;-60
2022/08/29 06:30:54;;;;;;;;;4.00;3.00;;;;;19.18;49.28;101190.94;5107579;27;46235;-58
2022/08/29 06:33:19;;;;;;;;;4.00;2.00;;;;;19.17;49.35;101194.63;5110336;27;45505;-58
2022/08/29 06:35:45;;;;;;;;;3.00;3.00;;;;;19.18;49.42;101192.78;5114914;27;45467;-58
2022/08/29 06:38:10;;;;;;;;;3.00;1.67;;;;;19.17;49.13;101174.91;5097536;27;45364;-59
2022/08/29 06:40:36;;;;;;;;;1.00;1.00;;;;;19.17;49.16;101183.84;5097471;27;47153;-58
2022/08/29 06:43:01;;;;;;;;;3.00;1.67;;;;;19.14;49.22;101187.66;5079855;27;45450;-59
2022/08/29 06:45:27;;;;;;;;;3.00;3.00;;;;;19.11;49.79;101178.94;5092088;27;45394;-59
2022/08/29 06:47:52;;;;;;;;;3.00;2.00;;;;;19.10;49.20;101174.53;5086516;27;45630;-59
2022/08/29 06:50:18;;;;;;;;;1.00;1.00;;;;;19.22;49.44;101187.00;5100981;27;45758;-60
2022/08/29 06:52:43;;;;;;;;;5.67;4.00;;;;;19.23;49.56;101188.72;5097198;27;45337;-58
2022/08/29 06:55:12;;;;;;;;;5.00;3.33;;;;;19.20;49.09;101180.88;5095990;27;45483;-59
2022/08/29 06:57:44;;;;;;;;;4.00;2.00;;;;;19.21;49.19;101185.28;5082937;27;45831;-60
2022/08/29 07:00:12;;;;;;;;;4.67;4.00;;;;;19.19;49.19;101184.56;5075590;28;46318;-60
2022/08/29 07:02:39;;;;;;;;;3.33;3.33;;;;;19.24;49.57;101192.25;5085427;27;45540;-58
2022/08/29 07:05:06;;;;;;;;;2.00;2.00;;;;;19.23;49.16;101188.72;5094279;27;45451;-56
2022/08/29 07:07:33;;;;;;;;;4.67;3.00;;;;;19.33;49.18;101195.06;5093205;27;45527;-58
2022/08/29 07:09:59;;;;;;;;;3.67;3.00;;;;;19.41;49.11;101197.13;5094183;27;45588;-58
2022/08/29 07:12:24;;;;;;;;;3.00;2.00;;;;;19.50;48.55;101195.47;5099031;27;45296;-57
2022/08/29 07:14:50;;;;;;;;;3.67;3.00;;;;;19.60;48.61;101185.66;5093316;27;45268;-58
2022/08/29 07:17:16;;;;;;;;;2.00;2.00;;;;;19.66;48.35;101180.63;5093634;27;45729;-56
2022/08/29 07:19:42;;;;;;;;;3.00;3.00;;;;;19.65;48.36;101172.63;5088095;27;46392;-54
2022/08/29 07:22:07;;;;;;;;;9.00;3.00;;;;;19.75;48.19;101184.38;5090953;27;45370;-55
2022/08/29 07:24:33;;;;;;;;;5.33;2.33;;;;;19.72;47.94;101179.22;5091890;27;46918;-59
2022/08/29 07:26:59;;;;;;;;;3.67;2.00;;;;;19.75;47.70;101184.38;5105320;27;45697;-56
2022/08/29 07:29:25;;;;;;;;;3.00;2.33;;;;;19.77;47.83;101176.97;5127422;27;47321;-52
2022/08/29 07:31:50;;;;;;;;;3.00;2.00;;;;;19.80;47.45;101181.28;5107006;27;45377;-53
2022/08/29 07:34:18;;;;;;;;;3.67;3.67;;;;;19.86;47.69;101187.00;5097124;27;45438;-54
2022/08/29 07:36:43;;;;;;;;;1.67;1.67;;;;;19.88;47.33;101185.03;5085125;27;45338;-56
2022/08/29 07:39:12;;;;;;;;;2.33;2.00;;;;;19.94;47.71;101184.50;5114314;27;45400;-58
2022/08/29 07:41:40;;;;;;;;;3.33;3.33;;;;;20.00;47.41;101181.28;5113892;27;45381;-55
2022/08/29 07:44:06;;;;;;;;;2.67;2.67;;;;;20.06;47.19;101179.06;5081076;27;45702;-56
2022/08/29 07:46:32;;;;;;;;;2.00;1.00;;;;;20.11;46.99;101185.75;5080960;27;45504;-57
2022/08/29 07:48:59;;;;;;;;;3.00;3.00;;;;;20.17;46.78;101189.75;5096382;27;47541;-55
2022/08/29 07:51:25;;;;;;;;;3.00;2.67;;;;;20.21;46.94;101175.88;5096798;27;45400;-58
2022/08/29 07:53:51;;;;;;;;;1.00;1.00;;;;;20.26;46.43;101186.25;5097420;27;45442;-56
2022/08/29 07:56:21;;;;;;;;;4.00;2.00;;;;;20.29;46.54;101188.69;5096832;27;45461;-56
2022/08/29 07:58:47;;;;;;;;;3.00;2.00;;;;;20.37;46.42;101186.19;5096297;27;45481;-55
2022/08/29 08:01:13;;;;;;;;;3.00;3.00;;;;;20.42;46.39;101193.91;5096346;27;45274;-57
2022/08/29 08:03:41;;;;;;;;;3.00;3.00;;;;;20.47;45.97;101183.56;5083882;27;45572;-56
2022/08/29 08:06:07;;;;;;;;;3.00;2.00;;;;;20.52;45.74;101192.97;5074973;27;45404;-57
2022/08/29 08:08:34;;;;;;;;;4.00;2.00;;;;;20.53;45.79;101181.16;5075751;27;45348;-56
2022/08/29 08:11:01;;;;;;;;;3.00;3.00;;;;;20.62;45.84;101190.31;5076173;27;45310;-56
2022/08/29 08:13:27;;;;;;;;;3.00;3.00;;;;;20.67;45.71;101189.88;5076160;27;45247;-56
2022/08/29 08:15:54;;;;;;;;;4.00;2.00;;;;;20.72;45.64;101176.84;5074780;27;45375;-56
2022/08/29 08:18:20;;;;;;;;;2.33;2.33;;;;;20.76;45.39;101173.72;5075702;28;46166;-57
2022/08/29 08:20:47;;;;;;;;;2.00;2.00;;;;;20.82;45.67;101164.19;5075138;27;45527;-56
2022/08/29 08:23:14;;;;;;;;;2.00;2.00;;;;;20.86;45.48;101166.50;5076150;27;45474;-56
2022/08/29 08:25:41;;;;;;;;;3.00;3.00;;;;;20.87;45.59;101162.78;5076290;27;45529;-57
2022/08/29 08:28:06;;;;;;;;;4.33;2.00;;;;;20.95;45.10;101169.34;5075568;27;47209;-56
2022/08/29 08:30:33;;;;;;;;;6.00;3.00;;;;;20.99;45.30;101174.34;5074460;28;45279;-56
2022/08/29 08:32:58;;;;;;;;;4.00;1.75;;;;;21.06;44.78;101169.22;5076902;27;45348;-56
2022/08/29 08:35:24;;;;;;;;;1.67;1.33;;;;;21.16;44.94;101173.66;5079455;27;45562;-57
2022/08/29 08:37:49;;;;;;;;;3.00;3.00;;;;;21.40;44.56;101165.16;5095419;27;45306;-56
2022/08/29 08:40:21;;;;;;;;;5.00;3.00;;;;;21.76;44.86;101170.88;5098229;27;45408;-56
2022/08/29 08:42:48;;;;;;;;;2.00;2.00;;;;;22.09;43.31;101164.13;5099677;27;45363;-56
2022/08/29 08:45:21;;;;;;;;;3.00;3.00;;;;;22.38;42.77;101162.16;5099987;27;45286;-59
2022/08/29 08:47:52;;;;;;;;;3.00;3.00;;;;;22.74;42.72;101166.88;5098225;27;46039;-57
2022/08/29 08:50:22;;;;;;;;;3.00;3.00;;;;;23.09;41.26;101171.56;5099531;27;45420;-57
2022/08/29 08:52:54;;;;;;;;;2.25;2.00;;;;;23.38;41.30;101166.75;5096048;27;45193;-56
2022/08/29 08:55:49;;;;;;;;;2.75;2.75;;;;;23.75;40.88;101169.34;5088321;27;45644;-56
2022/08/29 08:58:37;;;;;;;;;5.00;3.75;;;;;24.11;39.39;101164.69;5092322;27;46348;-57
2022/08/29 09:01:25;;;;;;;;;2.25;2.25;;;;;24.46;39.54;101173.72;5098980;27;45373;-59
2022/08/29 09:04:19;;;;;;;;;4.75;3.00;;;;;24.81;39.46;101166.41;5098922;27;45336;-57
2022/08/29 09:06:59;;;;;;;;;3.00;3.00;;;;;25.01;38.50;101173.34;5099006;27;45617;-56
2022/08/29 09:09:37;;;;;;;;;3.50;3.00;;;;;25.37;38.24;101171.19;5089974;27;45795;-59
2022/08/29 09:12:35;;;;;;;;;4.00;3.00;;;;;25.69;36.61;101175.84;5088565;27;45599;-58
2022/08/29 09:15:11;;;;;;;;;4.00;2.25;;;;;25.88;37.06;101170.03;5076428;27;45553;-56
2022/08/29 09:18:00;;;;;;;;;5.00;3.50;;;;;26.19;37.47;101169.31;5081071;27;45466;-56
2022/08/29 09:20:30;;;;;;;;;4.00;2.50;;;;;26.38;35.45;101168.09;5098170;27;46306;-56
2022/08/29 09:23:02;;;;;;;;;3.60;3.60;;;;;26.58;35.47;101166.69;5099115;27;45747;-57
2022/08/29 09:25:29;;;;;;;;;6.20;4.80;;;;;26.79;36.13;101155.16;5100062;27;45436;-60
2022/08/29 09:27:58;;;;;;;;;3.00;3.00;;;;;27.02;35.12;101171.63;5111239;27;45601;-58
2022/08/29 09:30:27;;;;;;;;;3.80;3.80;;;;;26.97;35.70;101147.56;5090478;27;45582;-58
2022/08/29 09:33:02;;;;;;;;;4.00;3.00;;;;;27.21;34.32;101170.31;5094321;27;45511;-58
2022/08/29 09:35:46;;;;;;;;;3.60;3.60;;;;;27.36;34.62;101162.22;5092066;27;45389;-59
2022/08/29 09:38:18;;;;;;;;;5.20;4.00;;;;;27.57;33.82;101155.03;5087618;27;45435;-60
2022/08/29 09:40:57;;;;;;;;;7.50;7.50;;;;;27.75;34.44;101154.75;5078761;27;45967;-57
2022/08/29 09:43:27;;;;;;;;;2.00;2.00;;;;;27.96;33.95;101161.38;5078451;27;45262;-58
2022/08/29 09:46:22;;;;;;;;;3.60;3.40;;;;;28.14;34.67;101162.75;5077342;28;45465;-57
2022/08/29 09:48:56;;;;;;;;;2.00;2.00;;;;;28.19;33.18;101157.56;5078787;28;45934;-57
2022/08/29 09:51:25;;;;;;;;;4.80;3.00;;;;;28.29;33.89;101160.06;5078042;28;46322;-57
2022/08/29 09:53:52;;;;;;;;;4.40;3.00;;;;;28.45;33.55;101153.53;5078176;27;45322;-57
2022/08/29 09:56:27;;;;;;;;;2.80;2.80;;;;;28.46;33.14;101152.50;5078404;27;45254;-56
2022/08/29 09:58:59;;;;;;;;;2.60;2.60;;;;;28.42;32.70;101153.94;5077905;27;45430;-57
2022/08/29 10:01:26;;;;;;;;;5.40;4.80;;;;;28.42;32.74;101154.78;5077872;28;45479;-58
2022/08/29 10:03:59;;;;;;;;;2.00;2.00;;;;;28.49;33.41;101150.22;5077582;27;45425;-57
2022/08/29 10:06:31;;;;;;;;;3.00;3.00;;;;;28.51;32.94;101139.09;5076501;27;45442;-56
2022/08/29 10:09:24;;;;;;;;;4.40;3.80;;;;;28.37;33.61;101145.41;5077965;28;45318;-58
2022/08/29 10:11:59;;;;;;;;;5.60;2.80;;;;;28.20;33.03;101151.03;5077717;27;45270;-58
2022/08/29 10:14:48;;;;;;;;;5.00;3.60;;;;;27.75;34.64;101141.09;5087839;27;45251;-56
2022/08/29 10:20:09;;;;;;;;;2.60;2.20;;;;;27.29;34.58;101140.22;5077967;28;45226;-56
2022/08/29 10:22:39;;;;;;;;;5.00;3.00;;;;;27.16;35.15;101140.81;5078629;27;46059;-57
2022/08/29 10:25:16;;;;;;;;;5.00;3.40;;;;;26.89;35.20;101131.22;5098102;27;45415;-57
2022/08/29 10:27:51;;;;;;;;;3.60;3.60;;;;;26.76;35.57;101139.16;5098301;27;45302;-57
2022/08/29 10:30:25;;;;;;;;;8.00;5.00;;;;;26.45;35.97;101142.69;5081602;27;45493;-57
2022/08/29 10:33:25;;;;;;;;;4.60;1.80;;;;;26.37;36.74;101144.59;5096135;27;46131;-58
2022/08/29 10:36:08;;;;;;;;;5.60;2.20;;;;;26.35;36.35;101131.09;5093658;27;45443;-56
2022/08/29 10:38:41;;;;;;;;;5.40;4.20;;;;;26.35;36.59;101131.09;5100750;27;45340;-58
2022/08/29 10:41:18;;;;;;;;;3.75;3.00;;;;;26.34;36.47;101137.59;5098104;27;45559;-57
2022/08/29 10:44:08;;;;;;;;;4.75;3.00;;;;;26.25;36.67;101130.44;5087364;27;45462;-58
2022/08/29 10:46:50;;;;;;;;;4.60;3.80;;;;;26.13;36.83;101131.84;5092241;27;45428;-57
2022/08/29 10:49:37;;;;;;;;;3.80;3.80;;;;;26.07;36.98;101127.09;5094677;27;45513;-55
2022/08/29 10:52:10;;;;;;;;;4.50;4.50;;;;;26.06;37.25;101122.69;5096368;27;45340;-58
2022/08/29 10:54:57;;;;;;;;;8.25;5.50;;;;;26.11;37.39;101117.53;5096926;27;46582;-56
2022/08/29 10:58:01;;;;;;;;;5.80;5.40;;;;;26.22;36.80;101122.63;5107558;27;45335;-58
2022/08/29 11:00:42;;;;;;;;;5.75;5.50;;;;;26.13;36.66;101120.94;5090185;27;45330;-59
2022/08/29 11:03:34;;;;;;;;;5.25;5.25;;;;;26.15;37.34;101127.06;5096498;27;45607;-60
2022/08/29 11:06:08;;;;;;;;;3.00;3.00;;;;;26.22;36.93;101116.31;5096856;27;46306;-56
2022/08/29 11:08:41;;;;;;;;;4.40;4.40;;;;;26.26;36.46;101120.38;5095206;27;45275;-59
2022/08/29 11:11:07;;;;;;;;;4.00;4.00;;;;;26.26;37.28;101115.78;5102063;27;45229;-55
2022/08/29 11:13:45;;;;;;;;;5.75;5.00;;;;;26.38;37.47;101127.19;5101939;27;45372;-58
2022/08/29 11:16:27;;;;;;;;;4.25;4.25;;;;;26.41;36.98;101114.06;5095334;27;46202;-56
2022/08/29 11:19:21;;;;;;;;;5.60;5.60;;;;;26.47;36.97;101128.03;5096130;27;45326;-57
2022/08/29 11:21:53;;;;;;;;;6.00;6.00;;;;;26.43;36.69;101122.94;5076731;27;45332;-58
2022/08/29 11:24:19;;;;;;;;;10.25;6.25;;;;;26.53;36.89;101111.78;5093165;27;45535;-58
2022/08/29 11:27:07;;;;;;;;;5.75;5.75;;;;;26.60;36.26;101120.97;5096870;27;46131;-58
2022/08/29 11:29:42;;;;;;;;;7.80;6.40;;;;;26.74;37.31;101113.91;5108997;27;45465;-59
2022/08/29 11:32:19;;;;;;;;;8.50;6.00;;;;;26.89;36.30;101111.28;5083990;27;45345;-58
2022/08/29 11:35:22;;;;;;;;;5.00;5.00;;;;;26.91;36.29;101110.06;5102430;27;45571;-59
2022/08/29 11:38:34;;;;;;;;;7.50;5.50;;;;;27.06;35.82;101107.44;5088993;27;47179;-59